الصفحة الرئيسية
METAR-TAF:

METAR-TAF

مطار :

تانابا, اليابان

دائرة عرض: 33-44N, خط طول: 135-23E, ارتفاع: 105 متر

مراقبة الطقس الحالي

تاريخ ووقت الإصدار 1ساعة و 10 دقيقة قبل الساعة 02:00UTC
ريح 5 عقدة من الجنوب, الاتجاه يتراوح بين الشرق/الجنوب الشرقي و الجنوب الغربي
درجة الحرارة 26°درجة مئوية
الرطوبة 89%
ضغط 1011 hPa
الرؤية 10 كم أو أكثر
غيوم قليلة على ارتفاع 900 قدم
غيوم متفرقة على ارتفاع 1500 قدم
غيوم مفككة على ارتفاع 10000 قدم

METAR: RJBD 250200Z 17005KT 120V220 9999 FEW009 SCT015 BKN100 26/24 Q1011

زمن: 12:10 (03:10 UTC)


TAF: مفقودة

أرصاد الطقس والتوقعات من أكثر من 4000 مطار (تقارير الطقس للمطار METAR والتنبؤ بالطقس بالمطارTAF).

المحطات المتاحة هي النقط الصفراء والحمراء على الخريطة.

حرك المؤشر فوق النقطة لمعرفة اسم المحطة.

ثم انقر لمعرفة أرصاد وتوقعات الطقس.

لتغيير الخارطة: اضغط على الأزرار الخضراء مع رمز الصليب الأسود للتكبير. على الزر الأخضر مع شرطة للتصغير، أو على الأسهم الخضراء للخرائط المجاورة.


METAR-TAF: